Time;durP1;ratioP1;P1;durP2;ratioP2;P2;SDS_P1;SDS_P2;PMS_P1;PMS_P2;Temp;Humidity;BMP_temperature;BMP_pressure;BME280_temperature;BME280_humidity;BME280_pressure;Samples;Min_cycle;Max_cycle;Signal;HPM_P1;HPM_P2
2021/10/11 16:30:37;;;;;;;0.00;0.00;;;;;;;;;;4894975;27;3196281;-80
2021/10/11 16:34:45;;;;;;;0.00;0.00;;;;;;;;;;5025818;27;1395607;-64
2021/10/11 16:38:20;;;;;;;0.00;0.00;;;;;;;;;;5008654;28;395274;-74
2021/10/11 16:40:45;;;;;;;0.00;0.00;;;;;;;;;;5030073;28;20124;-69
2021/10/11 16:43:11;;;;;;;0.10;0.00;;;;;;;;;;5027263;28;20025;-76
2021/10/11 16:45:40;;;;;;;0.00;0.00;;;;;;;;;;5019322;28;20540;-69
2021/10/11 16:48:06;;;;;;;0.00;0.00;;;;;;;;;;5022961;28;20052;-68
2021/10/11 16:50:31;;;;;;;0.00;0.00;;;;;;;;;;5021128;28;20030;-65
2021/10/11 16:52:57;;;;;;;0.00;0.00;;;;;;;;;;5023952;28;20100;-63
2021/10/11 17:17:53;;;;;;;0.00;0.00;;;;;;;;;;5081630;27;20516;-56
2021/10/11 17:20:20;;;;;;;0.00;0.00;;;;;;;;;;5027199;28;20072;-60
2021/10/11 17:25:18;;;;;;;0.00;0.00;;;;;;;;;;5023375;27;1962495;-59
2021/10/11 17:27:45;;;;;;;0.00;0.00;;;;;;;;;;5052442;28;20087;-64
2021/10/11 17:30:12;;;;;;;0.00;0.00;;;;;;;;;;5067361;28;20051;-56
2021/10/11 17:32:43;;;;;;;0.00;0.00;;;;;;;;;;5078662;28;20089;-63
2021/10/11 17:35:10;;;;;;;0.00;0.00;;;;;;;;;;5088818;28;20683;-59
2021/10/11 17:37:38;;;;;;;0.00;0.00;;;;;;;;;;5058634;28;20075;-60
2021/10/11 17:40:05;;;;;;;0.00;0.00;;;;;;;;;;5098991;28;20131;-60
2021/10/11 17:42:35;;;;;;;0.00;0.00;;;;;;;;;;5076354;28;20127;-67
2021/10/11 17:45:03;;;;;;;0.10;0.00;;;;;;;;;;5072902;28;21026;-66
2021/10/11 17:47:31;;;;;;;0.00;0.00;;;;;;;;;;5018209;28;430336;-68
2021/10/11 17:50:16;;;;;;;0.00;0.00;;;;;;;;;;5030967;27;20503;-69
2021/10/11 17:52:42;;;;;;;0.00;0.00;;;;;;;;;;5035334;28;20583;-67
2021/10/11 17:55:10;;;;;;;0.00;0.00;;;;;;;;;;5050980;28;20143;-69
2021/10/11 17:57:37;;;;;;;0.00;0.00;;;;;;;;;;5047519;28;20051;-67
2021/10/11 18:00:05;;;;;;;0.00;0.00;;;;;;;;;;5011663;28;20111;-75
2021/10/11 18:02:40;;;;;;;0.00;0.00;;;;;;;;;;5051350;28;20432;-74
2021/10/11 18:05:10;;;;;;;0.00;0.00;;;;;;;;;;5022623;28;20397;-68
2021/10/11 18:07:38;;;;;;;0.00;0.00;;;;;;;;;;5058810;28;20053;-68
2021/10/11 18:10:08;;;;;;;0.00;0.00;;;;;;;;;;5049882;28;20053;-77
2021/10/11 18:12:36;;;;;;;0.00;0.00;;;;;;;;;;5045036;28;20036;-73
2021/10/11 18:19:31;;;;;;;0.15;0.00;;;;;;;;;;5009849;27;2709007;-71
2021/10/11 18:24:39;;;;;;;0.00;0.00;;;;;;;;;;4852959;27;5927596;-71
2021/10/11 18:27:28;;;;;;;0.00;0.00;;;;;;;;;;5035820;28;20128;-73
2021/10/11 18:30:13;;;;;;;0.00;0.00;;;;;;;;;;5066506;28;20055;-73
2021/10/11 18:35:31;;;;;;;0.00;0.00;;;;;;;;;;5008633;27;20488;-69
2021/10/11 18:38:17;;;;;;;0.00;0.00;;;;;;;;;;4971300;28;391166;-51
2021/10/11 18:42:22;;;;;;;0.00;0.00;;;;;;;27.47;100.00;100739.13;5023664;27;315434;-64
2021/10/11 18:45:08;;;;;;;0.00;0.00;;;;;;;27.07;89.00;100743.00;4953267;28;20189;-58
2021/10/11 18:47:52;;;;;;;0.00;0.00;;;;;;;30.27;86.78;100749.28;4986516;28;515768;-64
2021/10/11 18:50:40;;;;;;;0.00;0.00;;;;;;;27.50;83.74;100744.34;5020928;28;20100;-62
2021/10/11 18:53:26;;;;;;;0.00;0.00;;;;;;;27.02;86.19;100739.75;4962482;28;20052;-60
2021/10/11 18:56:11;;;;;;;0.00;0.00;;;;;;;26.86;87.97;100740.94;4928384;28;20062;-61
2021/10/11 18:58:56;;;;;;;0.00;0.00;;;;;;;27.27;94.20;100741.56;4984385;28;20806;-57
2021/10/11 19:01:43;;;;;;;0.00;0.00;;;;;;;27.21;87.50;100740.16;4963099;28;20327;-54
2021/10/11 19:09:29;;;;;;;0.00;0.00;;;;;;;27.65;83.46;100745.06;5044336;27;20999;-55
2021/10/11 19:12:14;;;;;;;0.00;0.00;;;;;;;27.40;83.94;100734.22;5030910;28;153930;-54
2021/10/11 19:16:08;;;;;;;;;;;;;;;27.75;98.37;100735.19;5056423;28;11511;-60
2021/10/11 19:19:17;;;;;;;0.00;0.00;;;;;;;27.94;82.89;100739.19;5063208;27;20490;-65
2021/10/11 19:31:04;;;;;;;0.00;0.00;;;;;;;28.07;79.04;100730.94;5110506;27;20879;-65
2021/10/11 19:33:49;;;;;;;0.08;0.00;;;;;;;27.78;79.80;100733.13;5088246;28;20105;-66
2021/10/11 19:36:34;;;;;;;0.00;0.00;;;;;;;27.62;80.23;100732.53;5090291;28;20123;-72
2021/10/11 19:39:19;;;;;;;0.00;0.00;;;;;;;27.64;80.65;100737.88;5086270;28;20047;-62
2021/10/11 19:42:04;;;;;;;0.00;0.00;;;;;;;27.68;80.77;100744.84;5086414;28;20063;-64
2021/10/11 19:44:48;;;;;;;0.00;0.00;;;;;;;27.72;80.83;100735.44;5095241;28;20047;-62
2021/10/11 19:47:33;;;;;;;0.00;0.00;;;;;;;28.03;83.25;100735.75;5082382;28;20566;-58
2021/10/11 19:50:18;;;;;;;0.00;0.00;;;;;;;28.05;80.84;100741.09;5057382;28;20103;-62
2021/10/11 19:53:05;;;;;;;0.00;0.00;;;;;;;27.79;82.57;100732.13;5075167;28;20052;-58
2021/10/11 19:55:49;;;;;;;0.00;0.00;;;;;;;27.58;83.14;100722.84;5073841;28;20090;-59
2021/10/11 19:58:37;;;;;;;0.00;0.00;;;;;;;27.17;84.61;100716.81;5070070;28;20052;-67
2021/10/11 20:01:26;;;;;;;0.00;0.00;;;;;;;26.17;91.90;100724.06;5065594;28;20060;-65
2021/10/11 20:04:12;;;;;;;0.00;0.00;;;;;;;25.63;98.02;100715.94;5069620;28;20526;-61
2021/10/11 20:06:56;;;;;;;0.00;0.00;;;;;;;25.34;100.00;100708.84;5078101;28;20106;-61
2021/10/11 20:09:42;;;;;;;0.00;0.00;;;;;;;25.09;100.00;100684.25;5075864;28;20072;-62
2021/10/11 20:12:28;;;;;;;0.00;0.00;;;;;;;25.06;100.00;100707.97;5064236;28;20496;-63
2021/10/11 20:15:13;;;;;;;0.00;0.00;;;;;;;24.98;100.00;100699.47;5065535;28;20047;-67
2021/10/11 20:18:01;;;;;;;0.00;0.00;;;;;;;24.95;100.00;100705.97;5072814;28;20458;-65
2021/10/11 20:20:47;;;;;;;0.00;0.00;;;;;;;24.89;100.00;100695.47;5069557;28;20075;-60
2021/10/11 20:23:31;;;;;;;0.00;0.00;;;;;;;24.85;100.00;100699.38;5071861;28;20051;-61
2021/10/11 20:26:16;;;;;;;0.00;0.00;;;;;;;24.79;100.00;100688.03;5076112;28;20054;-64
2021/10/11 20:29:03;;;;;;;0.00;0.00;;;;;;;24.70;100.00;100688.63;5071910;28;20059;-63
2021/10/11 20:31:54;;;;;;;0.00;0.00;;;;;;;24.69;100.00;100700.44;5074390;28;20071;-63
2021/10/11 20:34:38;;;;;;;0.00;0.00;;;;;;;24.65;100.00;100699.75;5071672;28;20047;-61
2021/10/11 20:37:23;;;;;;;0.00;0.00;;;;;;;24.65;100.00;100697.03;5089064;28;20066;-65
2021/10/11 20:40:09;;;;;;;0.00;0.00;;;;;;;24.67;100.00;100697.84;5077603;28;20113;-63
2021/10/11 20:42:53;;;;;;;0.00;0.00;;;;;;;24.62;100.00;100691.84;5056577;28;20135;-65
2021/10/11 20:45:38;;;;;;;0.00;0.00;;;;;;;24.61;100.00;100692.78;5066163;28;20060;-61
2021/10/11 20:48:23;;;;;;;0.00;0.00;;;;;;;24.59;100.00;100693.81;5052455;28;20488;-67
2021/10/11 20:51:07;;;;;;;0.00;0.00;;;;;;;24.59;100.00;100699.22;5060858;28;20048;-62
2021/10/11 20:53:52;;;;;;;0.00;0.00;;;;;;;24.48;100.00;100683.63;5062577;28;20526;-62
2021/10/11 20:56:36;;;;;;;0.00;0.00;;;;;;;24.53;100.00;100684.22;5057691;28;20059;-64
2021/10/11 20:59:21;;;;;;;0.00;0.00;;;;;;;24.54;100.00;100685.09;5066358;28;20071;-68
2021/10/11 21:02:07;;;;;;;0.00;0.00;;;;;;;24.53;100.00;100684.22;5044100;28;20470;-60
2021/10/11 21:04:51;;;;;;;0.00;0.00;;;;;;;24.52;100.00;100677.06;5058290;28;20109;-63
2021/10/11 21:07:36;;;;;;;0.00;0.00;;;;;;;24.50;100.00;100679.00;5058993;28;20071;-72
2021/10/11 21:10:21;;;;;;;0.00;0.00;;;;;;;24.47;100.00;100671.06;5056925;28;20052;-62
2021/10/11 21:13:05;;;;;;;0.00;0.00;;;;;;;24.45;100.00;100675.69;5056662;28;20066;-61
2021/10/11 21:15:50;;;;;;;0.00;0.00;;;;;;;24.45;100.00;100672.97;5045638;28;20051;-61
2021/10/11 21:18:35;;;;;;;0.00;0.00;;;;;;;24.40;100.00;100669.69;5058810;28;20135;-63
2021/10/11 21:21:23;;;;;;;0.00;0.00;;;;;;;24.44;100.00;100673.09;5058336;28;20047;-65
2021/10/11 21:24:07;;;;;;;0.00;0.00;;;;;;;24.44;100.00;100671.25;5057276;28;20062;-62
2021/10/11 21:26:52;;;;;;;0.00;0.00;;;;;;;24.41;100.00;100676.84;5056697;28;20582;-65
2021/10/11 21:29:40;;;;;;;0.00;0.00;;;;;;;24.41;100.00;100676.00;5072615;28;20064;-62
2021/10/11 21:32:25;;;;;;;0.00;0.00;;;;;;;24.38;100.00;100678.88;5055266;28;20225;-63
2021/10/11 21:35:10;;;;;;;0.00;0.00;;;;;;;24.30;100.00;100668.53;5064100;28;20067;-65
2021/10/11 21:37:54;;;;;;;0.05;0.00;;;;;;;24.31;100.00;100666.66;5061451;28;20079;-61
2021/10/11 21:40:39;;;;;;;0.00;0.00;;;;;;;24.29;100.00;100663.19;5060772;28;20487;-59
2021/10/11 21:43:23;;;;;;;0.00;0.00;;;;;;;24.28;100.00;100670.44;5048645;28;20459;-60
2021/10/11 21:46:09;;;;;;;0.00;0.00;;;;;;;24.30;100.00;100671.25;5053367;28;20070;-66
2021/10/11 21:48:57;;;;;;;0.00;0.00;;;;;;;24.24;100.00;100649.91;5057097;28;20052;-60
2021/10/11 21:51:42;;;;;;;0.00;0.00;;;;;;;24.24;100.00;100668.00;5046472;28;20071;-60
2021/10/11 21:54:26;;;;;;;0.00;0.00;;;;;;;24.33;100.00;100670.16;5049670;28;20058;-62
2021/10/11 21:57:10;;;;;;;0.00;0.00;;;;;;;24.32;100.00;100666.56;5051043;28;20091;-63
2021/10/11 21:59:55;;;;;;;0.00;0.00;;;;;;;24.26;100.00;100656.13;5059380;28;20059;-61
2021/10/11 22:02:39;;;;;;;0.00;0.00;;;;;;;24.29;100.00;100665.91;5065408;28;20055;-62
2021/10/11 22:05:24;;;;;;;0.00;0.00;;;;;;;24.28;100.00;100659.59;5050929;28;20561;-64
2021/10/11 22:08:10;;;;;;;0.00;0.00;;;;;;;24.22;100.00;100662.72;5036297;28;20447;-62
2021/10/11 22:10:57;;;;;;;0.00;0.00;;;;;;;24.25;100.00;100662.50;5058563;28;20512;-61
2021/10/11 22:13:41;;;;;;;0.00;0.00;;;;;;;24.19;100.00;100668.31;5064000;28;20102;-62
2021/10/11 22:16:26;;;;;;;0.00;0.00;;;;;;;24.15;100.00;100657.75;5060468;28;20047;-63
2021/10/11 22:19:10;;;;;;;0.00;0.00;;;;;;;24.17;100.00;100659.38;5056103;28;20054;-63
2021/10/11 22:21:55;;;;;;;0.00;0.00;;;;;;;24.13;100.00;100657.81;5065522;28;20047;-63
2021/10/11 22:24:39;;;;;;;0.00;0.00;;;;;;;24.13;100.00;100655.13;5063406;28;20412;-64
2021/10/11 22:27:23;;;;;;;0.00;0.00;;;;;;;24.13;100.00;100651.56;5049686;28;20523;-57
2021/10/11 22:30:08;;;;;;;0.00;0.00;;;;;;;24.07;100.00;100650.09;5062074;28;20562;-61
2021/10/11 22:32:53;;;;;;;0.00;0.00;;;;;;;24.11;100.00;100651.66;5060769;28;20055;-60
2021/10/11 22:35:38;;;;;;;0.00;0.00;;;;;;;24.13;100.00;100643.41;5065144;28;20055;-62
2021/10/11 22:38:23;;;;;;;0.00;0.00;;;;;;;24.14;100.00;100640.63;5064239;28;20048;-62
2021/10/11 22:41:08;;;;;;;0.00;0.00;;;;;;;24.16;100.00;100643.22;5043582;28;20056;-63
2021/10/11 22:43:52;;;;;;;0.00;0.00;;;;;;;24.16;100.00;100629.66;5050401;28;20523;-64
2021/10/11 22:46:37;;;;;;;0.00;0.00;;;;;;;24.16;100.00;100633.25;5059049;28;20132;-62
2021/10/11 22:49:21;;;;;;;0.00;0.00;;;;;;;24.12;100.00;100634.41;5048492;28;20060;-62
2021/10/11 22:52:24;;;;;;;0.00;0.00;;;;;;;24.05;100.00;100624.91;5060685;28;20098;-62
2021/10/11 22:55:11;;;;;;;0.00;0.00;;;;;;;24.11;100.00;100624.53;5059109;28;20412;-64
2021/10/11 22:57:56;;;;;;;0.00;0.00;;;;;;;24.10;100.00;100633.66;5065211;28;20138;-63
2021/10/11 23:00:41;;;;;;;0.00;0.00;;;;;;;24.05;100.00;100624.06;5058275;28;20075;-63
2021/10/11 23:03:26;;;;;;;0.00;0.00;;;;;;;23.98;100.00;100611.84;5052979;28;20099;-62
2021/10/11 23:06:11;;;;;;;0.00;0.00;;;;;;;24.19;100.00;100630.34;5055603;28;20126;-62
2021/10/11 23:08:56;;;;;;;0.00;0.00;;;;;;;24.23;100.00;100621.06;5060689;28;20587;-59
2021/10/11 23:11:40;;;;;;;0.00;0.00;;;;;;;23.89;100.00;100617.78;5034341;28;20051;-68
2021/10/11 23:14:25;;;;;;;0.00;0.00;;;;;;;23.61;100.00;100612.31;5047705;28;20532;-63
2021/10/11 23:17:09;;;;;;;0.00;0.00;;;;;;;23.41;100.00;100604.50;5057090;28;20110;-68
2021/10/11 23:19:54;;;;;;;0.00;0.00;;;;;;;23.36;100.00;100598.44;5063835;28;20622;-64
2021/10/11 23:22:44;;;;;;;0.00;0.00;;;;;;;23.37;100.00;100602.94;5064798;28;20431;-66
2021/10/11 23:25:30;;;;;;;0.00;0.00;;;;;;;23.38;100.00;100608.22;5055487;28;20051;-67
2021/10/11 23:28:14;;;;;;;0.00;0.00;;;;;;;23.44;100.00;100596.16;5042076;28;20072;-65
2021/10/11 23:30:59;;;;;;;0.00;0.00;;;;;;;23.48;100.00;100601.31;5060291;28;20063;-66
2021/10/11 23:33:43;;;;;;;0.00;0.00;;;;;;;23.48;100.00;100595.00;5063974;28;20071;-67
2021/10/11 23:36:29;;;;;;;0.20;0.00;;;;;;;23.50;100.00;100593.97;5062672;28;20051;-66
2021/10/11 23:39:13;;;;;;;0.05;0.00;;;;;;;23.50;100.00;100593.97;5057647;28;20097;-61
2021/10/11 23:41:58;;;;;;;0.00;0.00;;;;;;;23.47;100.00;100583.34;5045964;28;20099;-60
2021/10/11 23:44:43;;;;;;;0.00;0.00;;;;;;;23.46;100.00;100586.97;5059434;28;20051;-62
2021/10/11 23:47:27;;;;;;;0.00;0.00;;;;;;;23.43;100.00;100589.91;5052283;28;20080;-59
2021/10/11 23:50:12;;;;;;;0.00;0.00;;;;;;;23.41;100.00;100578.28;5061098;28;20490;-58
2021/10/11 23:52:56;;;;;;;0.00;0.00;;;;;;;23.34;100.00;100568.75;5064831;28;20060;-59
2021/10/11 23:55:41;;;;;;;0.00;0.00;;;;;;;23.44;100.00;100575.38;5061881;28;20089;-62
2021/10/11 23:58:25;;;;;;;0.00;0.00;;;;;;;23.42;100.00;100580.00;5048347;28;20052;-60
